createdAt,value
2023-03-21T00:00:01.222Z,8.99
2023-03-21T00:05:09.491Z,8.89
2023-03-21T00:10:12.354Z,8.85
2023-03-21T00:15:00.494Z,8.81
2023-03-21T00:20:02.878Z,8.78
2023-03-21T00:25:00.646Z,8.76
2023-03-21T00:30:00.528Z,8.75
2023-03-21T00:35:25.806Z,8.73
2023-03-21T00:40:00.785Z,8.76
2023-03-21T00:45:01.123Z,8.77
2023-03-21T00:50:00.487Z,8.76
2023-03-21T00:55:00.490Z,8.79
2023-03-21T01:00:02.394Z,8.79
2023-03-21T01:05:00.589Z,8.81
2023-03-21T01:10:00.514Z,8.84
2023-03-21T01:15:00.512Z,8.87
2023-03-21T01:20:00.500Z,8.88
2023-03-21T01:25:12.107Z,8.91
2023-03-21T01:30:00.495Z,8.92
2023-03-21T01:35:00.545Z,8.92
2023-03-21T01:40:01.103Z,8.94
2023-03-21T01:45:04.867Z,8.94
2023-03-21T01:50:02.859Z,8.90
2023-03-21T01:55:03.193Z,8.85
2023-03-21T02:00:04.490Z,8.85
2023-03-21T02:05:01.948Z,8.84
2023-03-21T02:10:03.132Z,8.84
2023-03-21T02:15:00.815Z,8.84
2023-03-21T02:20:09.026Z,8.87
2023-03-21T02:25:22.139Z,8.87
2023-03-21T02:30:04.801Z,8.85
2023-03-21T02:35:20.380Z,8.86
2023-03-21T02:40:10.583Z,8.87
2023-03-21T02:45:10.090Z,8.85
2023-03-21T02:50:11.797Z,8.84
2023-03-21T02:55:01.617Z,8.83
2023-03-21T03:00:10.731Z,8.83
2023-03-21T03:05:00.505Z,8.82
2023-03-21T03:10:07.102Z,8.82
2023-03-21T03:15:10.515Z,8.81
2023-03-21T03:20:17.625Z,8.81
2023-03-21T03:25:19.858Z,8.81
2023-03-21T03:30:02.303Z,8.75
2023-03-21T03:35:03.544Z,8.75
2023-03-21T03:40:12.281Z,8.74
2023-03-21T03:45:01.253Z,8.72
2023-03-21T03:50:03.562Z,8.72
2023-03-21T03:55:01.037Z,8.71
2023-03-21T04:00:01.313Z,8.72
2023-03-21T04:05:00.504Z,8.72
2023-03-21T04:10:00.544Z,8.68
2023-03-21T04:15:10.458Z,8.70
2023-03-21T04:20:10.804Z,8.70
2023-03-21T04:25:00.723Z,8.70
2023-03-21T04:30:00.515Z,8.71
2023-03-21T04:35:00.627Z,8.71
2023-03-21T04:40:01.521Z,8.69
2023-03-21T04:45:01.293Z,8.68
2023-03-21T04:50:00.522Z,8.69
2023-03-21T04:55:00.631Z,8.69
2023-03-21T05:00:03.054Z,8.68
2023-03-21T05:05:00.546Z,8.66
2023-03-21T05:10:02.421Z,8.64
2023-03-21T05:15:00.561Z,8.64
2023-03-21T05:20:00.604Z,8.65
2023-03-21T05:25:00.533Z,8.65
2023-03-21T05:30:02.991Z,8.66
2023-03-21T05:35:00.977Z,8.64
2023-03-21T05:40:01.625Z,8.66
2023-03-21T05:45:00.513Z,8.68
2023-03-21T05:50:00.519Z,8.67
2023-03-21T05:55:00.668Z,8.68
2023-03-21T06:00:01.450Z,8.70
2023-03-21T06:05:00.480Z,8.72
2023-03-21T06:10:00.505Z,8.74
2023-03-21T06:15:00.572Z,8.79
2023-03-21T06:20:01.038Z,8.81
2023-03-21T06:25:01.312Z,8.85
2023-03-21T06:30:01.133Z,8.87
2023-03-21T06:35:00.668Z,8.89
2023-03-21T06:40:00.538Z,8.93
2023-03-21T06:45:00.491Z,8.98
2023-03-21T06:50:01.170Z,9.05
2023-03-21T06:55:00.612Z,9.05
2023-03-21T07:00:01.307Z,9.06
2023-03-21T07:05:00.499Z,9.10
2023-03-21T07:10:00.509Z,9.13
2023-03-21T07:15:03.157Z,9.12
2023-03-21T07:20:00.550Z,9.18
2023-03-21T07:25:05.033Z,9.21
2023-03-21T07:30:00.494Z,9.24
2023-03-21T07:35:01.782Z,9.27
2023-03-21T07:40:00.504Z,9.30
2023-03-21T07:45:00.520Z,9.34
2023-03-21T07:50:00.815Z,9.43
2023-03-21T07:55:00.548Z,9.43
2023-03-21T08:00:01.260Z,9.45
2023-03-21T08:05:01.206Z,9.44
2023-03-21T08:10:00.502Z,9.45
2023-03-21T08:15:01.276Z,9.42
2023-03-21T08:20:00.538Z,9.36
2023-03-21T08:25:00.948Z,9.38
2023-03-21T08:30:00.618Z,9.41
2023-03-21T08:35:01.780Z,9.48
2023-03-21T08:40:00.565Z,9.54
2023-03-21T08:45:00.567Z,9.64
2023-03-21T08:50:00.595Z,9.75
2023-03-21T08:55:00.580Z,9.87
2023-03-21T09:00:01.133Z,9.90
2023-03-21T09:05:00.569Z,9.99
2023-03-21T09:10:19.636Z,10.05
2023-03-21T09:15:00.943Z,10.10
2023-03-21T09:20:00.596Z,10.10
2023-03-21T09:25:00.490Z,10.18
2023-03-21T09:30:00.506Z,10.28
2023-03-21T09:35:00.562Z,10.23
2023-03-21T09:40:00.486Z,10.28
2023-03-21T09:45:07.616Z,10.40
2023-03-21T09:50:14.784Z,10.44
2023-03-21T09:55:02.176Z,10.47
2023-03-21T10:00:05.864Z,10.53
2023-03-21T10:05:01.923Z,10.63
2023-03-21T10:10:01.944Z,10.75
2023-03-21T10:15:01.211Z,10.82
2023-03-21T10:20:17.766Z,10.91
2023-03-21T10:25:00.581Z,10.92
2023-03-21T10:30:00.992Z,11.04
2023-03-21T10:35:01.544Z,11.27
2023-03-21T10:40:00.799Z,11.45
2023-03-21T10:45:00.532Z,11.56
2023-03-21T10:50:07.841Z,11.67
2023-03-21T10:55:18.056Z,11.60
2023-03-21T11:00:04.377Z,11.50
2023-03-21T11:05:06.390Z,11.54
2023-03-21T11:10:17.184Z,11.63
2023-03-21T11:15:20.435Z,11.77
2023-03-21T11:20:04.871Z,12.01
2023-03-21T11:25:03.922Z,12.25
2023-03-21T11:30:02.748Z,12.39
2023-03-21T11:35:06.466Z,12.25
2023-03-21T11:40:08.130Z,12.24
2023-03-21T11:45:09.007Z,12.28
2023-03-21T11:50:04.969Z,12.18
2023-03-21T11:55:11.553Z,12.06
2023-03-21T12:00:10.802Z,12.14
2023-03-21T12:05:08.585Z,12.26
2023-03-21T12:10:20.245Z,12.34
2023-03-21T12:15:14.843Z,12.36
2023-03-21T12:20:06.852Z,12.42
2023-03-21T12:25:11.021Z,12.57
2023-03-21T12:30:09.484Z,12.67
2023-03-21T12:35:20.398Z,12.89
2023-03-21T12:40:17.608Z,12.85
2023-03-21T12:45:15.315Z,12.74
2023-03-21T12:50:20.383Z,12.73
2023-03-21T12:55:06.667Z,12.80
2023-03-21T13:00:15.016Z,12.96
2023-03-21T13:05:20.033Z,13.40
2023-03-21T13:10:03.730Z,14.18
2023-03-21T13:15:21.830Z,14.90
2023-03-21T13:20:14.297Z,14.74
2023-03-21T13:25:06.590Z,14.69
2023-03-21T13:30:06.767Z,15.08
2023-03-21T13:35:20.435Z,14.94
2023-03-21T13:40:05.760Z,14.46
2023-03-21T13:45:04.731Z,14.07
2023-03-21T13:50:20.000Z,13.94
2023-03-21T13:55:01.856Z,13.80
2023-03-21T14:00:19.891Z,13.74
2023-03-21T14:05:05.956Z,13.84
2023-03-21T14:10:05.162Z,13.89
2023-03-21T14:15:15.891Z,13.87
2023-03-21T14:20:09.129Z,13.80
2023-03-21T14:25:02.533Z,13.85
2023-03-21T14:30:02.171Z,13.84
2023-03-21T14:35:00.781Z,13.87
2023-03-21T14:40:05.141Z,14.07
2023-03-21T14:45:13.452Z,13.97
2023-03-21T14:50:00.721Z,13.77
2023-03-21T14:55:04.222Z,13.76
2023-03-21T15:00:05.530Z,13.76
2023-03-21T15:05:14.247Z,13.66
2023-03-21T15:10:04.280Z,13.51
2023-03-21T15:15:01.517Z,13.40
2023-03-21T15:20:00.934Z,13.32
2023-03-21T15:25:04.531Z,13.31
2023-03-21T15:30:00.534Z,13.28
2023-03-21T15:35:06.976Z,13.37
2023-03-21T15:40:19.307Z,13.44
2023-03-21T15:45:07.581Z,13.33
2023-03-21T15:50:07.192Z,13.29
2023-03-21T15:55:00.775Z,13.16
2023-03-21T16:00:20.732Z,13.10
2023-03-21T16:05:12.416Z,13.00
2023-03-21T16:10:02.978Z,12.85
2023-03-21T16:15:00.713Z,12.80
2023-03-21T16:20:00.508Z,12.71
2023-03-21T16:25:00.540Z,12.68
2023-03-21T16:30:00.592Z,12.58
2023-03-21T16:35:00.496Z,12.39
2023-03-21T16:40:01.254Z,12.27
2023-03-21T16:45:00.504Z,12.17
2023-03-21T16:50:00.630Z,11.99
2023-03-21T16:55:00.511Z,11.80
2023-03-21T17:00:01.303Z,11.77
2023-03-21T17:05:01.319Z,11.80
2023-03-21T17:10:00.488Z,11.80
2023-03-21T17:15:00.794Z,11.74
2023-03-21T17:20:01.024Z,11.73
2023-03-21T17:25:00.498Z,11.71
2023-03-21T17:30:00.815Z,11.62
2023-03-21T17:35:00.574Z,11.49
2023-03-21T17:40:00.468Z,11.31
2023-03-21T17:45:00.537Z,11.15
2023-03-21T17:50:00.999Z,11.12
2023-03-21T17:55:00.577Z,11.09
2023-03-21T18:00:01.339Z,11.14
2023-03-21T18:05:00.575Z,11.11
2023-03-21T18:10:00.562Z,11.13
2023-03-21T18:15:02.301Z,11.13
2023-03-21T18:20:00.685Z,11.12
2023-03-21T18:25:00.491Z,11.10
2023-03-21T18:30:41.249Z,11.07
2023-03-21T18:35:00.765Z,11.08
2023-03-21T18:40:00.685Z,11.11
2023-03-21T18:45:00.576Z,11.11
2023-03-21T18:50:15.279Z,11.11
2023-03-21T18:55:00.572Z,11.12
2023-03-21T19:00:03.101Z,11.15
2023-03-21T19:05:00.607Z,11.18
2023-03-21T19:10:17.149Z,11.19
2023-03-21T19:15:00.599Z,11.18
2023-03-21T19:20:00.498Z,11.17
2023-03-21T19:25:00.491Z,11.12
2023-03-21T19:30:13.422Z,10.98
2023-03-21T19:35:00.617Z,10.85
2023-03-21T19:40:00.737Z,10.76
2023-03-21T19:45:01.272Z,10.69
2023-03-21T19:50:47.207Z,10.68
2023-03-21T19:55:00.549Z,10.74
2023-03-21T20:00:01.426Z,10.78
2023-03-21T20:05:00.491Z,10.85
2023-03-21T20:10:00.508Z,10.87
2023-03-21T20:15:12.255Z,10.91
2023-03-21T20:20:00.592Z,10.94
2023-03-21T20:25:00.620Z,10.93
2023-03-21T20:30:09.056Z,10.91
2023-03-21T20:35:13.669Z,10.89
2023-03-21T20:40:00.921Z,10.89
2023-03-21T20:45:00.922Z,10.85
2023-03-21T20:50:00.485Z,10.82
2023-03-21T20:55:01.335Z,10.79
2023-03-21T21:00:01.116Z,10.75
2023-03-21T21:05:28.314Z,10.61
2023-03-21T21:10:00.530Z,10.45
2023-03-21T21:15:00.616Z,10.32
2023-03-21T21:20:03.854Z,10.23
2023-03-21T21:25:00.498Z,10.18
2023-03-21T21:30:00.611Z,10.07
2023-03-21T21:35:00.582Z,10.02
2023-03-21T21:40:00.867Z,10.03
2023-03-21T21:45:00.509Z,9.99
2023-03-21T21:50:00.596Z,10.07
2023-03-21T21:55:00.813Z,10.11
2023-03-21T22:00:02.898Z,10.11
2023-03-21T22:05:00.483Z,10.14
2023-03-21T22:10:00.553Z,10.12
2023-03-21T22:15:00.813Z,10.14
2023-03-21T22:20:06.020Z,10.07
2023-03-21T22:25:00.744Z,10.04
2023-03-21T22:30:01.036Z,9.99
2023-03-21T22:35:00.892Z,10.01
2023-03-21T22:40:00.616Z,9.96
2023-03-21T22:45:00.547Z,9.89
2023-03-21T22:50:00.878Z,9.83
2023-03-21T22:55:00.600Z,9.74
2023-03-21T23:00:02.777Z,9.69
2023-03-21T23:05:00.474Z,9.60
2023-03-21T23:10:00.520Z,9.56
2023-03-21T23:15:02.253Z,9.53
2023-03-21T23:20:01.345Z,9.49
2023-03-21T23:25:00.624Z,9.46
2023-03-21T23:30:01.341Z,9.48
2023-03-21T23:35:00.553Z,9.43
2023-03-21T23:40:00.768Z,9.41
2023-03-21T23:45:00.553Z,9.41
2023-03-21T23:50:00.555Z,9.43
2023-03-21T23:55:00.500Z,9.47
